Time;durP1;ratioP1;P1;durP2;ratioP2;P2;SDS_P1;SDS_P2;PMS_P1;PMS_P2;Temp;Humidity;BMP_temperature;BMP_pressure;BME280_temperature;BME280_humidity;BME280_pressure;Samples;Min_cycle;Max_cycle;Signal;HPM_P1;HPM_P2
2022/09/04 00:02:41;;;;;;;3.85;1.08;;;16.50;96.50;;;;;;5031094;28;20049;-96
2022/09/04 00:05:12;;;;;;;8.00;1.42;;;17.30;96.80;;;;;;5046377;28;20048;-96
2022/09/04 00:08:18;;;;;;;1.35;0.90;;;16.40;96.80;;;;;;5045912;28;20049;-96
2022/09/04 00:10:59;;;;;;;2.30;1.02;;;15.50;96.70;;;;;;4995897;28;20049;-96
2022/09/04 00:13:40;;;;;;;5.03;1.00;;;16.40;97.20;;;;;;5026644;28;20059;-96
2022/09/04 00:16:18;;;;;;;3.45;1.10;;;15.40;97.10;;;;;;5026035;28;20055;-96
2022/09/04 00:19:13;;;;;;;4.53;0.90;;;16.30;97.70;;;;;;5024024;28;20041;-96
2022/09/04 00:21:52;;;;;;;3.08;0.90;;;16.30;97.80;;;;;;5043136;28;20041;-96
2022/09/04 00:24:40;;;;;;;6.22;1.13;;;16.20;98.00;;;;;;5046612;28;20052;-96
2022/09/04 00:27:26;;;;;;;3.65;1.05;;;16.10;98.30;;;;;;5028749;28;20037;-95
2022/09/04 00:30:06;;;;;;;2.40;1.02;;;16.90;98.60;;;;;;5038783;28;20048;-96
2022/09/04 00:32:54;;;;;;;2.42;1.35;;;15.90;98.40;;;;;;5033865;28;20119;-96
2022/09/04 00:35:23;;;;;;;2.92;1.13;;;16.10;98.60;;;;;;5029674;28;20091;-96
2022/09/04 00:38:15;;;;;;;3.58;1.05;;;16.10;98.60;;;;;;5027437;28;20527;-96
2022/09/04 00:41:12;;;;;;;3.78;1.15;;;16.00;98.60;;;;;;5029896;28;20037;-96
2022/09/04 00:44:36;;;;;;;6.18;1.15;;;15.90;98.70;;;;;;5031640;28;20573;-96
2022/09/04 00:47:19;;;;;;;2.35;0.88;;;16.00;98.80;;;;;;4969882;28;20053;-96
2022/09/04 00:49:57;;;;;;;4.53;1.02;;;15.90;98.70;;;;;;4970901;28;20042;-96
2022/09/04 00:52:32;;;;;;;5.65;1.42;;;15.70;98.80;;;;;;5007534;28;20079;-96
2022/09/04 00:55:39;;;;;;;7.47;1.27;;;15.80;98.90;;;;;;5023172;28;20045;-96
2022/09/04 00:58:36;;;;;;;3.67;1.10;;;15.80;99.00;;;;;;5038086;28;20075;-96
2022/09/04 01:01:10;;;;;;;2.03;1.25;;;15.80;99.20;;;;;;5024003;28;20045;-96
2022/09/04 01:04:11;;;;;;;3.13;1.35;;;15.70;99.30;;;;;;5039243;28;20098;-96
2022/09/04 01:07:14;;;;;;;2.30;0.98;;;15.70;99.50;;;;;;5035727;28;20079;-96
2022/09/04 01:09:45;;;;;;;2.92;1.10;;;15.70;99.40;;;;;;5023746;28;20095;-96
2022/09/04 01:12:45;;;;;;;2.00;0.98;;;15.70;99.50;;;;;;5013340;28;20069;-96
2022/09/04 01:15:16;;;;;;;3.55;1.55;;;16.60;99.70;;;;;;5021561;28;20060;-96
2022/09/04 01:17:51;;;;;;;2.00;1.10;;;15.60;99.60;;;;;;5036125;28;20480;-96
2022/09/04 01:20:41;;;;;;;2.03;1.20;;;15.60;99.70;;;;;;5019340;28;20098;-96
2022/09/04 01:23:59;;;;;;;4.47;1.17;;;15.60;99.80;;;;;;5038189;28;20064;-96
2022/09/04 01:27:02;;;;;;;1.50;1.05;;;15.60;99.90;;;;;;4996149;28;20045;-96
2022/09/04 01:29:58;;;;;;;4.90;1.10;;;15.60;99.90;;;;;;5020331;28;20045;-96
2022/09/04 01:32:42;;;;;;;4.20;1.30;;;15.60;99.80;;;;;;5019968;28;20574;-96
2022/09/04 01:35:39;;;;;;;2.35;0.93;;;15.60;99.90;;;;;;5017271;28;20049;-96
2022/09/04 01:38:37;;;;;;;3.10;1.20;;;15.60;99.90;;;;;;5021319;28;20581;-96
2022/09/04 01:41:10;;;;;;;3.28;1.05;;;15.30;99.90;;;;;;5022562;28;20050;-96
2022/09/04 01:43:53;;;;;;;5.32;1.30;;;15.50;99.90;;;;;;5056594;28;20044;-96
2022/09/04 01:46:57;;;;;;;1.98;1.00;;;15.50;99.90;;;;;;5026955;28;20052;-96
2022/09/04 01:49:25;;;;;;;;;;;15.50;99.90;;;;;;5024737;28;20057;-96
2022/09/04 01:52:15;;;;;;;3.70;1.58;;;15.40;99.90;;;;;;5027533;28;20232;-96
2022/09/04 01:55:09;;;;;;;3.35;1.27;;;15.40;99.90;;;;;;5025918;28;20045;-96
2022/09/04 01:58:00;;;;;;;5.97;1.23;;;15.40;99.90;;;;;;5039017;28;20123;-96
2022/09/04 02:00:43;;;;;;;7.82;1.17;;;15.30;99.90;;;;;;5025674;28;20088;-96
2022/09/04 02:03:25;;;;;;;3.25;1.00;;;15.30;99.90;;;;;;5024354;28;20087;-96
2022/09/04 02:06:20;;;;;;;2.13;1.10;;;15.30;99.90;;;;;;5039734;28;20412;-96
2022/09/04 02:08:58;;;;;;;2.17;0.63;;;15.20;99.90;;;;;;5033433;28;20087;-96
2022/09/04 02:11:27;;;;;;;2.63;1.20;;;16.00;99.90;;;;;;5030246;28;20132;-96
2022/09/04 02:14:16;;;;;;;2.70;1.30;;;15.10;99.90;;;;;;5046374;28;20045;-96
2022/09/04 02:17:01;;;;;;;4.38;1.50;;;15.10;99.90;;;;;;5028462;28;20399;-96
2022/09/04 02:19:57;;;;;;;2.60;1.00;;;15.00;99.90;;;;;;5031329;28;20052;-96
2022/09/04 02:22:48;;;;;;;4.18;1.50;;;15.00;99.90;;;;;;5031309;28;20096;-96
2022/09/04 02:25:31;;;;;;;3.08;1.10;;;15.00;99.90;;;;;;5029871;28;20052;-96
2022/09/04 02:28:04;;;;;;;10.38;1.30;;;14.90;99.90;;;;;;5030487;28;20539;-96
2022/09/04 02:30:57;;;;;;;1.40;0.90;;;14.80;99.90;;;;;;5048880;28;20055;-96
2022/09/04 02:34:11;;;;;;;2.85;1.27;;;14.80;99.90;;;;;;5050788;28;20041;-96
2022/09/04 02:36:48;;;;;;;3.92;1.15;;;14.70;99.90;;;;;;4977843;28;20046;-96
2022/09/04 02:39:54;;;;;;;3.55;1.02;;;15.60;99.90;;;;;;5048445;28;20049;-96
2022/09/04 02:42:56;;;;;;;4.95;0.88;;;14.60;99.90;;;;;;5034339;28;20052;-96
2022/09/04 02:45:44;;;;;;;4.35;1.33;;;14.70;99.90;;;;;;5048409;28;20048;-96
2022/09/04 02:48:27;;;;;;;6.57;1.58;;;14.60;99.90;;;;;;5030831;28;20049;-96
2022/09/04 02:50:52;;;;;;;;;;;14.60;99.90;;;;;;5049496;28;20052;-96
2022/09/04 02:53:47;;;;;;;3.40;1.20;;;14.60;99.90;;;;;;5032120;28;19920;-96
2022/09/04 02:56:42;;;;;;;1.92;0.98;;;14.60;99.90;;;;;;5033745;28;20100;-96
2022/09/04 02:59:31;;;;;;;2.13;1.17;;;14.50;99.90;;;;;;5033526;28;20037;-95
2022/09/04 03:02:00;;;;;;;2.03;1.13;;;14.50;99.90;;;;;;5044162;28;20045;-96
2022/09/04 03:04:37;;;;;;;2.60;1.10;;;14.50;99.90;;;;;;5044854;28;20036;-96
2022/09/04 03:07:32;;;;;;;4.63;1.20;;;14.50;99.90;;;;;;5042085;28;20091;-96
2022/09/04 03:10:28;;;;;;;2.85;1.20;;;14.50;99.90;;;;;;5046986;28;20052;-96
2022/09/04 03:13:05;;;;;;;1.40;0.82;;;14.40;99.90;;;;;;5007222;28;20076;-96
2022/09/04 03:15:46;;;;;;;3.55;1.35;;;15.60;99.90;;;;;;5039681;28;20056;-96
2022/09/04 03:18:34;;;;;;;2.38;1.83;;;15.20;99.90;;;;;;5040036;28;20049;-96
2022/09/04 03:21:15;;;;;;;3.67;1.20;;;14.40;99.90;;;;;;5023023;28;20416;-96
2022/09/04 03:23:57;;;;;;;5.97;1.10;;;14.40;99.90;;;;;;5036920;28;20042;-96
2022/09/04 03:26:31;;;;;;;6.15;1.50;;;15.60;99.90;;;;;;5019471;28;20238;-96
2022/09/04 03:29:23;;;;;;;2.55;1.17;;;14.30;99.90;;;;;;5025797;28;20128;-96
2022/09/04 03:32:16;;;;;;;5.05;2.50;;;14.30;99.90;;;;;;5043949;28;20060;-96
2022/09/04 03:35:11;;;;;;;3.80;1.42;;;14.30;99.90;;;;;;5024706;28;20048;-96
2022/09/04 03:38:23;;;;;;;2.15;1.10;;;14.30;99.90;;;;;;5023651;28;20052;-96
2022/09/04 03:41:11;;;;;;;3.88;2.28;;;14.20;99.90;;;;;;5022500;28;20037;-96
2022/09/04 03:44:08;;;;;;;10.52;1.73;;;14.20;99.90;;;;;;5037770;28;20413;-96
2022/09/04 03:46:44;;;;;;;5.63;1.52;;;14.20;99.90;;;;;;5023041;28;20056;-96
2022/09/04 03:49:35;;;;;;;1.83;0.90;;;14.10;99.90;;;;;;5040454;28;20201;-96
2022/09/04 03:52:09;;;;;;;5.10;1.45;;;14.20;99.90;;;;;;5025243;28;20076;-96
2022/09/04 03:55:06;;;;;;;5.28;1.90;;;14.10;99.90;;;;;;5023251;28;20076;-96
2022/09/04 03:57:37;;;;;;;5.35;1.60;;;14.10;99.90;;;;;;5020909;28;20075;-96
2022/09/04 04:00:18;;;;;;;8.65;1.50;;;14.10;99.90;;;;;;5042999;28;20056;-96
2022/09/04 04:02:49;;;;;;;2.05;1.17;;;14.00;99.90;;;;;;5047881;28;20072;-96
2022/09/04 04:05:30;;;;;;;7.07;1.40;;;14.00;99.90;;;;;;5046848;28;20037;-96
2022/09/04 04:08:06;;;;;;;4.13;1.48;;;14.00;99.90;;;;;;5045888;28;20037;-96
2022/09/04 04:11:08;;;;;;;3.90;1.40;;;15.20;99.90;;;;;;5040413;28;20049;-96
2022/09/04 04:14:09;;;;;;;4.15;1.33;;;13.10;99.90;;;;;;5026548;28;20047;-95
2022/09/04 04:16:58;;;;;;;2.50;1.20;;;13.90;99.90;;;;;;5058544;28;20032;-96
2022/09/04 04:20:01;;;;;;;2.95;1.42;;;13.90;99.90;;;;;;5040127;28;20029;-96
2022/09/04 04:22:53;;;;;;;3.05;1.17;;;13.80;99.90;;;;;;4962542;28;20478;-96
2022/09/04 04:25:35;;;;;;;2.20;1.40;;;13.90;99.90;;;;;;5029854;28;20057;-96
2022/09/04 04:28:18;;;;;;;2.35;1.23;;;13.80;99.90;;;;;;5035743;28;20144;-96
2022/09/04 04:30:58;;;;;;;3.08;1.75;;;13.80;99.90;;;;;;5036488;28;20051;-96
2022/09/04 04:33:48;;;;;;;3.20;1.40;;;13.70;99.90;;;;;;5023720;28;20048;-96
2022/09/04 04:36:32;;;;;;;3.50;1.50;;;13.70;99.90;;;;;;5034893;28;20080;-96
2022/09/04 04:39:29;;;;;;;2.25;1.70;;;15.00;99.90;;;;;;5020887;28;20387;-96
2022/09/04 04:42:33;;;;;;;3.75;1.38;;;13.70;99.90;;;;;;5054285;28;20045;-96
2022/09/04 04:48:53;;;;;;;6.95;1.52;;;13.70;99.90;;;;;;5032426;28;20053;-96
2022/09/04 04:51:45;;;;;;;4.15;1.38;;;13.70;99.90;;;;;;4978602;28;20065;-96
2022/09/04 04:54:39;;;;;;;6.27;1.70;;;13.70;99.90;;;;;;4959333;28;20061;-95
2022/09/04 04:57:34;;;;;;;3.90;1.48;;;13.80;99.90;;;;;;5021248;28;20287;-96
2022/09/04 05:00:28;;;;;;;2.97;1.20;;;13.80;99.90;;;;;;5054105;28;20087;-96
2022/09/04 05:03:15;;;;;;;3.50;1.48;;;13.90;99.90;;;;;;5051422;28;20087;-93
2022/09/04 05:05:50;;;;;;;7.40;1.48;;;13.90;99.90;;;;;;5032103;28;20053;-94
2022/09/04 05:08:37;;;;;;;5.50;1.50;;;13.90;99.90;;;;;;5024185;28;20048;-96
2022/09/04 05:11:17;;;;;;;2.50;1.50;;;14.00;99.90;;;;;;5041515;28;20129;-96
2022/09/04 05:14:19;;;;;;;2.65;1.42;;;13.90;99.90;;;;;;5048688;28;20049;-96
2022/09/04 05:17:04;;;;;;;2.90;1.20;;;14.00;99.90;;;;;;5053157;28;20043;-96
2022/09/04 05:24:05;;;;;;;7.38;1.88;;;14.10;99.90;;;;;;5052948;28;20137;-96
2022/09/04 05:27:14;;;;;;;6.78;1.77;;;14.10;99.90;;;;;;4945159;29;20095;-96
2022/09/04 05:30:14;;;;;;;7.72;2.38;;;14.10;99.90;;;;;;4970423;28;20054;-95
2022/09/04 05:33:07;;;;;;;1.90;1.40;;;14.10;99.90;;;;;;4968999;28;20065;-96
2022/09/04 05:35:56;;;;;;;4.63;1.30;;;13.20;99.90;;;;;;5026361;28;20072;-96
2022/09/04 05:38:45;;;;;;;4.20;1.42;;;14.10;99.90;;;;;;5027482;28;20060;-96
2022/09/04 05:42:00;;;;;;;12.75;3.95;;;14.10;99.90;;;;;;5024358;28;20053;-96
2022/09/04 05:48:44;;;;;;;3.85;1.48;;;13.60;99.90;;;;;;5005790;28;20056;-96
2022/09/04 05:51:34;;;;;;;3.13;1.55;;;14.00;99.90;;;;;;5016241;28;20521;-95
2022/09/04 05:57:58;;;;;;;7.82;1.70;;;14.30;99.90;;;;;;5038635;28;20046;-96
2022/09/04 06:01:24;;;;;;;5.45;1.80;;;14.30;99.90;;;;;;5047350;28;20040;-96
2022/09/04 06:04:47;;;;;;;2.03;1.67;;;14.40;99.90;;;;;;5013418;28;20050;-96
2022/09/04 06:07:59;;;;;;;3.95;1.60;;;14.50;99.90;;;;;;5001075;28;20053;-96
2022/09/04 06:10:47;;;;;;;2.42;1.42;;;14.50;99.90;;;;;;4991627;28;20104;-96
2022/09/04 06:13:30;;;;;;;4.65;1.33;;;14.60;99.90;;;;;;5004071;28;20078;-95
2022/09/04 06:16:22;;;;;;;4.25;1.70;;;14.70;99.90;;;;;;5001951;28;20047;-94
2022/09/04 06:19:01;;;;;;;11.30;2.38;;;14.80;99.90;;;;;;4982403;28;20054;-92
2022/09/04 06:22:02;;;;;;;5.30;1.88;;;14.80;99.90;;;;;;4981627;28;20049;-90
2022/09/04 06:24:52;;;;;;;3.22;2.25;;;14.90;99.90;;;;;;4979955;28;20158;-91
2022/09/04 06:27:56;;;;;;;3.20;1.63;;;14.90;99.90;;;;;;4962332;28;20046;-91
2022/09/04 06:30:29;;;;;;;4.47;1.95;;;15.40;99.90;;;;;;4960026;28;20457;-90
2022/09/04 06:33:01;;;;;;;;;;;15.10;99.90;;;;;;4974897;28;20889;-90
2022/09/04 06:35:36;;;;;;;2.10;1.48;;;15.10;99.90;;;;;;4974850;28;20005;-93
2022/09/04 06:38:49;;;;;;;2.17;1.48;;;15.20;99.90;;;;;;4973594;28;20101;-89
2022/09/04 06:41:43;;;;;;;1.77;1.30;;;15.20;99.90;;;;;;4954164;28;20699;-91
2022/09/04 06:44:31;;;;;;;6.40;2.10;;;15.30;99.90;;;;;;4973251;28;20516;-90
2022/09/04 06:47:41;;;;;;;2.28;1.42;;;15.30;99.90;;;;;;4973033;28;20057;-91
2022/09/04 06:50:26;;;;;;;3.63;1.90;;;15.30;99.90;;;;;;4941284;28;20060;-91
2022/09/04 06:53:13;;;;;;;6.05;2.00;;;15.40;99.90;;;;;;4955534;28;20494;-90
2022/09/04 06:55:43;;;;;;;2.72;1.42;;;15.40;99.90;;;;;;4972929;28;20046;-92
2022/09/04 06:58:27;;;;;;;5.40;1.42;;;15.80;99.90;;;;;;5010615;28;20106;-89
2022/09/04 07:01:07;;;;;;;4.32;1.27;;;15.60;99.90;;;;;;5033127;28;20056;-92
2022/09/04 07:03:58;;;;;;;3.40;1.92;;;15.80;99.90;;;;;;5032565;28;20449;-91
2022/09/04 07:06:35;;;;;;;5.35;1.70;;;15.90;99.90;;;;;;5035031;28;20029;-95
2022/09/04 07:09:14;;;;;;;4.03;1.88;;;16.00;99.90;;;;;;5034763;28;20140;-91
2022/09/04 07:11:54;;;;;;;2.55;1.58;;;16.10;99.90;;;;;;5033268;28;20056;-93
2022/09/04 07:14:50;;;;;;;3.00;1.65;;;16.20;99.90;;;;;;5033787;28;20115;-96
2022/09/04 07:17:32;;;;;;;3.28;1.60;;;16.30;99.90;;;;;;5032634;28;20143;-96
2022/09/04 07:20:23;;;;;;;4.75;1.88;;;16.50;99.90;;;;;;5034220;28;20118;-95
2022/09/04 07:23:04;;;;;;;2.28;1.50;;;16.60;99.90;;;;;;5027324;28;20048;-96
2022/09/04 07:25:55;;;;;;;3.95;1.65;;;16.70;99.90;;;;;;5043435;28;20554;-93
2022/09/04 07:28:46;;;;;;;2.58;1.63;;;16.80;99.90;;;;;;5023872;28;20045;-92
2022/09/04 07:31:19;;;;;;;2.72;1.35;;;16.90;99.90;;;;;;5018602;28;20518;-91
2022/09/04 07:34:00;;;;;;;;;;;17.00;99.90;;;;;;5032833;28;20060;-94
2022/09/04 07:36:45;;;;;;;4.55;2.28;;;17.10;99.90;;;;;;5032606;28;19927;-92
2022/09/04 07:39:32;;;;;;;5.40;1.52;;;18.30;99.90;;;;;;5032984;28;20088;-96
2022/09/04 07:42:06;;;;;;;4.15;1.83;;;17.40;99.90;;;;;;5038735;28;20087;-94
2022/09/04 07:44:45;;;;;;;1.90;1.27;;;17.60;99.90;;;;;;5034392;28;20037;-93
2022/09/04 07:47:46;;;;;;;3.35;2.03;;;17.70;99.90;;;;;;5034009;28;20387;-95
2022/09/04 07:50:34;;;;;;;6.95;1.92;;;17.80;99.90;;;;;;5035911;28;20041;-96
2022/09/04 07:54:05;;;;;;;3.00;2.45;;;18.00;99.90;;;;;;5045637;28;20123;-95
2022/09/04 07:57:02;;;;;;;5.00;1.77;;;18.10;99.90;;;;;;4988912;28;20050;-95
2022/09/04 07:59:46;;;;;;;4.30;1.70;;;18.20;99.90;;;;;;4966610;28;20042;-95
2022/09/04 08:02:36;;;;;;;2.15;1.52;;;18.30;99.90;;;;;;5028339;28;20129;-94
2022/09/04 08:05:30;;;;;;;2.85;1.77;;;18.50;99.90;;;;;;5029729;28;20051;-89
2022/09/04 08:08:16;;;;;;;2.78;1.70;;;18.60;99.90;;;;;;5009255;28;20045;-90
2022/09/04 08:11:03;;;;;;;3.55;1.67;;;18.90;99.90;;;;;;5031493;28;20045;-95
2022/09/04 08:13:59;;;;;;;2.63;1.73;;;18.90;99.90;;;;;;5032606;28;20057;-94
2022/09/04 08:16:43;;;;;;;3.55;1.92;;;19.00;99.90;;;;;;5014791;28;20049;-93
2022/09/04 08:19:24;;;;;;;6.10;1.75;;;19.20;99.90;;;;;;5033412;28;20396;-91
2022/09/04 08:21:52;;;;;;;4.63;1.80;;;19.30;99.90;;;;;;5036634;28;20062;-93
2022/09/04 08:24:32;;;;;;;4.90;1.55;;;19.40;99.90;;;;;;5039181;28;20572;-91
2022/09/04 08:27:10;;;;;;;3.20;1.60;;;19.50;99.90;;;;;;5032053;28;20045;-93
2022/09/04 08:30:14;;;;;;;3.13;1.70;;;19.60;99.90;;;;;;5051052;28;20025;-96
2022/09/04 08:33:10;;;;;;;3.67;1.95;;;19.70;99.90;;;;;;5017462;28;20131;-93
2022/09/04 08:36:09;;;;;;;4.00;1.63;;;19.80;99.90;;;;;;5030910;28;20119;-94
2022/09/04 08:38:54;;;;;;;7.43;1.98;;;19.90;99.80;;;;;;5031217;28;20049;-93
2022/09/04 08:41:53;;;;;;;2.90;1.48;;;20.10;99.70;;;;;;5031288;28;20045;-93
2022/09/04 08:44:56;;;;;;;5.35;1.60;;;20.20;99.30;;;;;;5014508;28;20052;-94
2022/09/04 08:47:56;;;;;;;2.67;1.60;;;20.30;98.90;;;;;;5014658;28;20442;-93
2022/09/04 08:50:48;;;;;;;4.07;1.65;;;20.40;98.40;;;;;;5030527;28;20515;-93
2022/09/04 08:54:03;;;;;;;3.38;1.42;;;20.60;98.70;;;;;;5030802;28;20099;-92
2022/09/04 08:56:34;;;;;;;4.00;1.90;;;20.70;98.20;;;;;;4983903;28;20140;-93
2022/09/04 08:59:15;;;;;;;3.45;1.75;;;20.90;98.20;;;;;;5030363;28;20048;-94
2022/09/04 09:02:07;;;;;;;8.82;1.73;;;21.00;97.70;;;;;;5030663;28;20559;-94
2022/09/04 09:05:05;;;;;;;2.70;1.60;;;21.10;97.30;;;;;;5029932;28;20049;-92
2022/09/04 09:07:51;;;;;;;4.40;1.67;;;21.30;97.00;;;;;;5002472;28;20064;-94
2022/09/04 09:10:47;;;;;;;3.65;1.50;;;21.40;97.30;;;;;;5030999;28;20431;-93
2022/09/04 09:13:47;;;;;;;2.40;1.40;;;21.60;97.50;;;;;;5029664;28;20061;-93
2022/09/04 09:16:15;;;;;;;3.78;1.60;;;21.70;96.50;;;;;;5013299;28;20172;-93
2022/09/04 09:18:56;;;;;;;4.28;1.35;;;21.90;96.60;;;;;;5013237;28;20130;-93
2022/09/04 09:22:06;;;;;;;2.05;1.45;;;22.00;96.50;;;;;;5012987;28;20045;-93
2022/09/04 09:24:50;;;;;;;5.05;1.50;;;22.10;95.70;;;;;;4960540;28;20509;-94
2022/09/04 09:27:48;;;;;;;4.82;1.70;;;22.20;95.30;;;;;;5013409;28;20072;-94
2022/09/04 09:30:21;;;;;;;4.20;1.40;;;22.30;94.30;;;;;;5012982;28;20080;-93
2022/09/04 09:33:08;;;;;;;1.75;1.02;;;22.40;94.60;;;;;;5013248;28;20126;-93
2022/09/04 09:35:53;;;;;;;4.57;1.52;;;22.60;94.10;;;;;;5012963;28;20049;-93
2022/09/04 09:38:47;;;;;;;3.47;1.30;;;22.80;93.80;;;;;;5013280;28;20048;-92
2022/09/04 09:41:44;;;;;;;2.38;1.20;;;23.00;93.50;;;;;;5013175;28;20045;-95
2022/09/04 09:44:40;;;;;;;2.80;1.23;;;23.20;92.10;;;;;;5013325;28;20554;-93
2022/09/04 09:47:27;;;;;;;1.95;1.00;;;23.30;91.60;;;;;;5012014;28;20407;-93
2022/09/04 09:50:09;;;;;;;2.78;1.25;;;23.30;91.30;;;;;;5012845;28;20078;-92
2022/09/04 09:52:56;;;;;;;2.60;0.90;;;23.30;91.00;;;;;;5029858;28;20130;-93
2022/09/04 09:55:31;;;;;;;2.10;0.80;;;23.40;89.80;;;;;;5006876;28;20292;-94
2022/09/04 09:58:28;;;;;;;3.55;1.50;;;23.50;89.80;;;;;;5013264;28;20045;-92
2022/09/04 10:01:16;;;;;;;5.00;2.15;;;23.50;87.60;;;;;;5013326;28;20094;-94
2022/09/04 10:04:10;;;;;;;2.45;1.30;;;23.60;85.10;;;;;;5013178;28;20503;-93
2022/09/04 10:07:09;;;;;;;2.05;1.10;;;23.70;85.20;;;;;;4987888;28;20064;-94
2022/09/04 10:09:50;;;;;;;3.53;1.17;;;23.80;84.30;;;;;;5009181;28;20071;-92
2022/09/04 10:12:40;;;;;;;3.08;1.10;;;23.80;83.60;;;;;;5009420;28;20136;-93
2022/09/04 10:15:23;;;;;;;1.70;1.02;;;23.90;82.10;;;;;;5026124;28;20053;-93
2022/09/04 10:18:17;;;;;;;9.55;1.00;;;23.90;82.50;;;;;;5025901;28;20130;-93
2022/09/04 10:20:49;;;;;;;1.85;0.80;;;23.90;80.70;;;;;;5009497;28;20106;-92
2022/09/04 10:23:39;;;;;;;4.68;1.02;;;24.10;80.40;;;;;;5026608;28;20052;-93
2022/09/04 10:26:34;;;;;;;3.38;1.00;;;24.20;79.80;;;;;;5010013;28;20081;-92
2022/09/04 10:29:02;;;;;;;6.85;1.13;;;24.50;76.70;;;;;;5029457;28;20045;-93
2022/09/04 10:31:49;;;;;;;5.13;1.20;;;24.70;78.30;;;;;;5029650;28;20045;-93
2022/09/04 10:34:35;;;;;;;3.88;0.98;;;24.80;76.70;;;;;;5030113;28;20048;-92
2022/09/04 10:37:47;;;;;;;2.47;1.10;;;24.90;75.40;;;;;;5012480;28;20041;-93
2022/09/04 10:40:50;;;;;;;6.65;1.95;;;25.10;72.10;;;;;;4950231;28;20177;-94
2022/09/04 10:43:50;;;;;;;2.03;1.08;;;25.20;72.00;;;;;;5031227;28;20095;-92
2022/09/04 10:46:34;;;;;;;1.95;0.85;;;25.20;69.80;;;;;;5020218;28;20064;-94
2022/09/04 10:49:14;;;;;;;1.58;0.80;;;25.20;70.00;;;;;;5037796;28;20045;-94
2022/09/04 10:52:24;;;;;;;1.80;0.93;;;25.20;70.40;;;;;;5035870;28;20055;-93
2022/09/04 10:55:18;;;;;;;1.83;1.05;;;25.70;67.30;;;;;;5012734;28;20088;-94
2022/09/04 10:58:07;;;;;;;2.15;0.90;;;25.30;69.80;;;;;;5013831;28;20354;-93
2022/09/04 11:01:05;;;;;;;2.65;0.90;;;25.40;68.60;;;;;;5015388;28;20056;-94
2022/09/04 11:03:59;;;;;;;6.05;1.15;;;25.50;66.70;;;;;;5014392;28;20053;-93
2022/09/04 11:06:51;;;;;;;3.83;1.10;;;25.50;67.30;;;;;;5014279;28;20053;-93
2022/09/04 11:09:42;;;;;;;4.53;2.07;;;25.50;66.50;;;;;;4990256;28;20134;-94
2022/09/04 11:12:17;;;;;;;3.92;1.10;;;25.60;66.20;;;;;;5019513;28;20099;-93
2022/09/04 11:15:28;;;;;;;2.33;0.85;;;25.60;65.90;;;;;;5016934;28;20119;-95
2022/09/04 11:18:30;;;;;;;6.97;1.35;;;25.60;65.90;;;;;;4993300;28;20053;-94
2022/09/04 11:21:20;;;;;;;1.35;0.98;;;25.70;67.20;;;;;;5015931;28;20125;-95
2022/09/04 11:23:56;;;;;;;2.60;1.13;;;25.80;63.60;;;;;;5015987;28;20051;-93
2022/09/04 11:26:40;;;;;;;2.08;1.10;;;25.90;63.50;;;;;;5015738;28;20037;-92
2022/09/04 11:29:41;;;;;;;5.97;1.00;;;25.90;63.90;;;;;;5015683;28;20561;-94
2022/09/04 11:32:17;;;;;;;2.33;1.40;;;26.00;63.70;;;;;;5016358;28;20045;-93
2022/09/04 11:35:05;;;;;;;2.72;1.27;;;26.20;63.60;;;;;;5015404;28;20136;-94
2022/09/04 11:37:49;;;;;;;2.13;1.00;;;26.30;62.10;;;;;;5015168;28;20044;-93
2022/09/04 11:40:39;;;;;;;3.58;1.40;;;26.40;62.20;;;;;;5015298;28;20056;-94
2022/09/04 11:43:27;;;;;;;3.45;1.08;;;26.40;61.60;;;;;;5015085;28;20523;-93
2022/09/04 11:46:32;;;;;;;6.38;0.93;;;26.30;61.30;;;;;;5014524;28;20131;-93
2022/09/04 11:49:19;;;;;;;5.82;1.23;;;26.30;61.00;;;;;;5031742;28;20099;-92
2022/09/04 11:52:07;;;;;;;5.28;0.98;;;26.40;60.80;;;;;;5015330;28;20260;-93
2022/09/04 11:54:50;;;;;;;4.32;1.30;;;26.30;60.60;;;;;;5014845;28;20059;-91
2022/09/04 11:57:41;;;;;;;1.98;1.05;;;26.30;60.60;;;;;;5008260;28;20408;-93
2022/09/04 12:00:13;;;;;;;6.85;0.98;;;26.20;62.00;;;;;;5014949;28;20475;-92
2022/09/04 12:02:58;;;;;;;1.70;1.00;;;26.40;61.40;;;;;;5014616;28;20045;-93
2022/09/04 12:05:38;;;;;;;2.45;1.23;;;26.40;60.90;;;;;;5014548;28;20493;-93
2022/09/04 12:08:23;;;;;;;6.22;1.80;;;26.50;60.90;;;;;;5014304;28;20072;-92
2022/09/04 12:11:13;;;;;;;1.50;0.90;;;26.60;60.90;;;;;;5014653;28;20040;-93
2022/09/04 12:13:51;;;;;;;8.60;1.30;;;26.80;60.40;;;;;;5031097;28;20087;-92
2022/09/04 12:16:50;;;;;;;3.20;1.23;;;27.00;60.60;;;;;;5014598;28;20049;-93
2022/09/04 12:19:38;;;;;;;2.00;1.20;;;27.10;60.10;;;;;;5014716;28;20074;-93
2022/09/04 12:22:44;;;;;;;2.55;1.20;;;27.10;57.80;;;;;;5017273;28;20417;-93
2022/09/04 12:25:33;;;;;;;4.47;1.20;;;27.10;58.10;;;;;;5032697;28;20137;-93
2022/09/04 12:28:05;;;;;;;3.53;1.67;;;27.20;60.70;;;;;;5032214;28;20464;-93
2022/09/04 12:30:49;;;;;;;1.63;0.98;;;27.30;59.30;;;;;;5015895;28;20053;-93
2022/09/04 12:33:24;;;;;;;1.38;0.98;;;27.40;57.60;;;;;;5014451;28;20049;-93
2022/09/04 12:36:21;;;;;;;1.33;0.88;;;27.40;58.30;;;;;;5014897;28;20450;-93
2022/09/04 12:39:06;;;;;;;4.82;1.00;;;27.40;57.50;;;;;;5031271;28;20392;-92
2022/09/04 12:41:59;;;;;;;6.90;1.40;;;27.50;58.40;;;;;;5002912;28;20508;-94
2022/09/04 12:44:52;;;;;;;3.90;1.20;;;27.50;57.70;;;;;;5003637;28;20045;-93
2022/09/04 12:47:40;;;;;;;5.10;1.15;;;27.50;56.90;;;;;;5030184;28;20045;-92
2022/09/04 12:50:21;;;;;;;2.72;0.75;;;27.40;56.80;;;;;;5013116;28;20140;-92
2022/09/04 12:53:03;;;;;;;4.53;1.15;;;27.40;56.60;;;;;;5014118;28;20500;-93
2022/09/04 12:55:57;;;;;;;1.90;0.95;;;27.40;56.80;;;;;;5030616;28;20133;-93
2022/09/04 12:58:33;;;;;;;2.97;1.00;;;27.50;56.60;;;;;;5029769;28;20045;-94
2022/09/04 13:01:30;;;;;;;1.38;0.68;;;27.70;56.50;;;;;;5013999;28;20102;-92
2022/09/04 13:04:22;;;;;;;3.78;1.10;;;27.80;56.70;;;;;;5013774;28;20519;-92
2022/09/04 13:07:30;;;;;;;7.25;1.38;;;27.90;55.50;;;;;;5030066;28;20048;-92
2022/09/04 13:10:06;;;;;;;3.55;1.05;;;28.00;55.50;;;;;;5030493;28;20496;-93
2022/09/04 13:12:45;;;;;;;3.03;0.85;;;28.00;55.60;;;;;;5029786;28;20061;-93
2022/09/04 13:15:27;;;;;;;5.22;1.00;;;28.00;55.00;;;;;;5030849;28;20056;-90
2022/09/04 13:18:20;;;;;;;0.98;0.68;;;28.10;54.30;;;;;;5030815;28;20072;-91
2022/09/04 13:21:31;;;;;;;4.05;1.95;;;28.00;54.00;;;;;;5030304;28;20045;-94
2022/09/04 13:24:14;;;;;;;5.15;1.38;;;28.00;55.30;;;;;;5015820;28;20047;-96
2022/09/04 13:26:43;;;;;;;2.22;0.70;;;28.00;54.40;;;;;;5032305;28;20412;-95
2022/09/04 13:29:47;;;;;;;4.25;1.10;;;28.00;54.40;;;;;;5017863;28;20051;-94
2022/09/04 13:32:38;;;;;;;3.20;0.90;;;28.10;55.00;;;;;;5015302;28;20492;-88
2022/09/04 13:35:40;;;;;;;4.75;1.20;;;28.20;54.00;;;;;;5014955;28;20447;-89
2022/09/04 13:38:23;;;;;;;4.57;1.10;;;28.40;52.80;;;;;;5012555;28;20040;-90
2022/09/04 13:40:59;;;;;;;3.13;0.90;;;28.50;53.30;;;;;;5013799;28;20053;-94
2022/09/04 13:43:40;;;;;;;2.33;0.90;;;28.50;52.70;;;;;;5013217;28;20056;-92
2022/09/04 13:46:16;;;;;;;1.95;0.82;;;28.50;52.50;;;;;;5029478;28;20139;-93
2022/09/04 13:49:04;;;;;;;3.38;0.82;;;28.50;52.50;;;;;;5031084;28;20106;-95
2022/09/04 13:51:34;;;;;;;0.60;0.52;;;28.50;53.30;;;;;;5015222;28;20091;-95
2022/09/04 13:54:24;;;;;;;2.17;1.17;;;28.50;52.90;;;;;;5034686;28;20041;-95
2022/09/04 13:57:04;;;;;;;2.47;1.08;;;28.40;52.30;;;;;;5032244;28;20073;-95
2022/09/04 13:59:31;;;;;;;2.05;1.10;;;28.30;52.80;;;;;;5038383;28;20041;-94
2022/09/04 14:02:03;;;;;;;5.82;1.02;;;28.20;52.80;;;;;;5021699;28;20070;-93
2022/09/04 14:04:47;;;;;;;5.43;0.82;;;28.20;52.60;;;;;;5062169;28;20049;-96
2022/09/04 14:07:25;;;;;;;6.70;0.80;;;28.30;52.30;;;;;;5051370;28;20429;-96
2022/09/04 14:09:56;;;;;;;8.45;1.05;;;28.30;52.90;;;;;;5056707;28;20044;-96
2022/09/04 14:13:02;;;;;;;4.13;0.80;;;28.30;52.70;;;;;;5057476;28;20037;-95
2022/09/04 14:16:01;;;;;;;8.93;0.90;;;28.40;52.30;;;;;;5047116;28;20083;-94
2022/09/04 14:18:51;;;;;;;6.78;1.23;;;28.30;52.50;;;;;;5026526;28;20049;-95
2022/09/04 14:21:48;;;;;;;1.63;0.75;;;28.40;52.40;;;;;;5039970;28;20115;-95
2022/09/04 14:24:24;;;;;;;1.70;1.20;;;28.40;52.50;;;;;;5039740;28;20179;-94
2022/09/04 14:26:59;;;;;;;1.70;1.00;;;28.50;53.80;;;;;;5028024;28;20504;-92
2022/09/04 14:29:31;;;;;;;3.47;0.90;;;28.50;52.80;;;;;;5037418;28;20080;-89
2022/09/04 14:32:23;;;;;;;0.82;0.60;;;28.50;53.00;;;;;;5032450;28;20106;-87
2022/09/04 14:35:14;;;;;;;1.15;0.70;;;28.40;52.50;;;;;;5031695;28;20045;-87
2022/09/04 14:38:13;;;;;;;4.15;1.13;;;28.40;52.90;;;;;;5031992;28;20364;-87
2022/09/04 14:40:54;;;;;;;7.28;1.67;;;28.40;52.80;;;;;;5005232;28;20048;-88
2022/09/04 14:43:45;;;;;;;1.27;0.60;;;28.40;52.90;;;;;;5031809;28;20048;-89
2022/09/04 14:46:50;;;;;;;0.85;0.70;;;28.40;53.20;;;;;;5032336;28;20057;-89
2022/09/04 14:49:20;;;;;;;0.90;0.68;;;28.50;53.40;;;;;;5032008;28;20045;-93
2022/09/04 14:51:49;;;;;;;2.47;1.10;;;28.50;53.00;;;;;;5032440;28;20049;-85
2022/09/04 14:54:26;;;;;;;2.88;1.00;;;28.60;52.40;;;;;;5032294;28;20029;-93